sensor_id;sensor_type;location;lat;lon;timestamp;P1;durP1;ratioP1;P2;durP2;ratioP2
39256;SDS011;67272;48.066;11.038;2023-09-08T00:00:13;6.78;;;6.22;;
39256;SDS011;67272;48.066;11.038;2023-09-08T00:02:40;7.60;;;6.60;;
39256;SDS011;67272;48.066;11.038;2023-09-08T00:05:09;6.47;;;5.55;;
39256;SDS011;67272;48.066;11.038;2023-09-08T00:07:42;5.90;;;5.30;;
39256;SDS011;67272;48.066;11.038;2023-09-08T00:10:08;6.15;;;5.50;;
39256;SDS011;67272;48.066;11.038;2023-09-08T00:12:36;6.05;;;5.55;;
39256;SDS011;67272;48.066;11.038;2023-09-08T00:15:09;6.25;;;5.65;;
39256;SDS011;67272;48.066;11.038;2023-09-08T00:17:35;6.40;;;5.80;;
39256;SDS011;67272;48.066;11.038;2023-09-08T00:20:01;5.95;;;5.45;;
39256;SDS011;67272;48.066;11.038;2023-09-08T00:22:39;6.75;;;6.10;;
39256;SDS011;67272;48.066;11.038;2023-09-08T00:25:08;6.95;;;6.35;;
39256;SDS011;67272;48.066;11.038;2023-09-08T00:27:37;6.45;;;5.65;;
39256;SDS011;67272;48.066;11.038;2023-09-08T00:30:04;6.07;;;5.57;;
39256;SDS011;67272;48.066;11.038;2023-09-08T00:32:30;7.18;;;6.47;;
39256;SDS011;67272;48.066;11.038;2023-09-08T00:34:59;6.55;;;5.95;;
39256;SDS011;67272;48.066;11.038;2023-09-08T00:37:25;6.93;;;6.22;;
39256;SDS011;67272;48.066;11.038;2023-09-08T00:39:54;6.90;;;6.20;;
39256;SDS011;67272;48.066;11.038;2023-09-08T00:42:23;6.00;;;5.50;;
39256;SDS011;67272;48.066;11.038;2023-09-08T00:44:49;6.03;;;5.53;;
39256;SDS011;67272;48.066;11.038;2023-09-08T00:47:19;5.63;;;5.13;;
39256;SDS011;67272;48.066;11.038;2023-09-08T00:49:45;6.38;;;5.78;;
39256;SDS011;67272;48.066;11.038;2023-09-08T00:52:21;6.15;;;5.57;;
39256;SDS011;67272;48.066;11.038;2023-09-08T00:54:48;6.13;;;5.53;;
39256;SDS011;67272;48.066;11.038;2023-09-08T00:57:14;6.80;;;6.05;;
39256;SDS011;67272;48.066;11.038;2023-09-08T00:59:44;6.38;;;5.78;;
39256;SDS011;67272;48.066;11.038;2023-09-08T01:02:13;5.82;;;5.30;;
39256;SDS011;67272;48.066;11.038;2023-09-08T01:04:39;6.13;;;5.63;;
39256;SDS011;67272;48.066;11.038;2023-09-08T01:07:07;6.78;;;5.50;;
39256;SDS011;67272;48.066;11.038;2023-09-08T01:09:38;6.47;;;5.82;;
39256;SDS011;67272;48.066;11.038;2023-09-08T01:12:15;6.30;;;5.70;;
39256;SDS011;67272;48.066;11.038;2023-09-08T01:14:48;6.20;;;5.43;;
39256;SDS011;67272;48.066;11.038;2023-09-08T01:17:15;6.07;;;5.47;;
39256;SDS011;67272;48.066;11.038;2023-09-08T01:19:41;6.57;;;5.97;;
39256;SDS011;67272;48.066;11.038;2023-09-08T01:27:38;7.18;;;5.53;;
39256;SDS011;67272;48.066;11.038;2023-09-08T01:30:05;6.22;;;5.55;;
39256;SDS011;67272;48.066;11.038;2023-09-08T01:32:38;6.05;;;5.55;;
39256;SDS011;67272;48.066;11.038;2023-09-08T01:35:05;6.50;;;5.80;;
39256;SDS011;67272;48.066;11.038;2023-09-08T01:37:31;7.22;;;6.28;;
39256;SDS011;67272;48.066;11.038;2023-09-08T01:39:57;6.60;;;5.90;;
39256;SDS011;67272;48.066;11.038;2023-09-08T01:42:23;8.38;;;5.93;;
39256;SDS011;67272;48.066;11.038;2023-09-08T01:44:49;6.50;;;6.00;;
39256;SDS011;67272;48.066;11.038;2023-09-08T01:47:16;6.90;;;6.30;;
39256;SDS011;67272;48.066;11.038;2023-09-08T01:49:45;6.47;;;5.82;;
39256;SDS011;67272;48.066;11.038;2023-09-08T01:52:11;6.88;;;6.28;;
39256;SDS011;67272;48.066;11.038;2023-09-08T01:54:37;7.13;;;6.53;;
39256;SDS011;67272;48.066;11.038;2023-09-08T01:57:04;6.78;;;6.18;;
39256;SDS011;67272;48.066;11.038;2023-09-08T01:59:30;6.68;;;6.18;;
39256;SDS011;67272;48.066;11.038;2023-09-08T02:01:56;6.75;;;6.15;;
39256;SDS011;67272;48.066;11.038;2023-09-08T02:04:25;6.53;;;5.60;;
39256;SDS011;67272;48.066;11.038;2023-09-08T02:06:52;7.13;;;6.45;;
39256;SDS011;67272;48.066;11.038;2023-09-08T02:09:19;6.90;;;6.20;;
39256;SDS011;67272;48.066;11.038;2023-09-08T02:11:45;9.05;;;6.32;;
39256;SDS011;67272;48.066;11.038;2023-09-08T02:14:11;6.70;;;6.03;;
39256;SDS011;67272;48.066;11.038;2023-09-08T02:16:37;7.38;;;6.45;;
39256;SDS011;67272;48.066;11.038;2023-09-08T02:19:05;6.38;;;5.82;;
39256;SDS011;67272;48.066;11.038;2023-09-08T02:21:37;7.35;;;6.65;;
39256;SDS011;67272;48.066;11.038;2023-09-08T02:24:03;7.63;;;6.35;;
39256;SDS011;67272;48.066;11.038;2023-09-08T02:26:30;8.57;;;7.25;;
39256;SDS011;67272;48.066;11.038;2023-09-08T02:28:59;8.13;;;7.32;;
39256;SDS011;67272;48.066;11.038;2023-09-08T02:31:26;7.57;;;6.82;;
39256;SDS011;67272;48.066;11.038;2023-09-08T02:33:56;8.60;;;7.80;;
39256;SDS011;67272;48.066;11.038;2023-09-08T02:36:22;8.80;;;8.00;;
39256;SDS011;67272;48.066;11.038;2023-09-08T02:38:53;7.88;;;6.93;;
39256;SDS011;67272;48.066;11.038;2023-09-08T02:41:20;7.65;;;6.90;;
39256;SDS011;67272;48.066;11.038;2023-09-08T02:43:50;7.88;;;6.95;;
39256;SDS011;67272;48.066;11.038;2023-09-08T02:46:20;7.15;;;6.55;;
39256;SDS011;67272;48.066;11.038;2023-09-08T02:48:50;7.60;;;6.20;;
39256;SDS011;67272;48.066;11.038;2023-09-08T02:51:18;7.20;;;6.53;;
39256;SDS011;67272;48.066;11.038;2023-09-08T02:53:44;7.43;;;6.80;;
39256;SDS011;67272;48.066;11.038;2023-09-08T02:56:17;6.45;;;5.85;;
39256;SDS011;67272;48.066;11.038;2023-09-08T02:58:43;7.10;;;6.50;;
39256;SDS011;67272;48.066;11.038;2023-09-08T03:01:13;6.88;;;6.20;;
39256;SDS011;67272;48.066;11.038;2023-09-08T03:03:40;7.28;;;6.65;;
39256;SDS011;67272;48.066;11.038;2023-09-08T03:06:10;7.40;;;6.65;;
39256;SDS011;67272;48.066;11.038;2023-09-08T03:08:38;7.68;;;6.90;;
39256;SDS011;67272;48.066;11.038;2023-09-08T03:11:05;6.82;;;6.20;;
39256;SDS011;67272;48.066;11.038;2023-09-08T03:13:35;6.65;;;6.05;;
39256;SDS011;67272;48.066;11.038;2023-09-08T03:16:02;7.28;;;6.57;;
39256;SDS011;67272;48.066;11.038;2023-09-08T03:18:29;8.32;;;7.28;;
39256;SDS011;67272;48.066;11.038;2023-09-08T03:21:00;7.07;;;6.38;;
39256;SDS011;67272;48.066;11.038;2023-09-08T03:23:37;7.45;;;6.75;;
39256;SDS011;67272;48.066;11.038;2023-09-08T03:26:06;7.10;;;6.50;;
39256;SDS011;67272;48.066;11.038;2023-09-08T03:28:33;7.25;;;6.43;;
39256;SDS011;67272;48.066;11.038;2023-09-08T03:31:00;7.47;;;6.78;;
39256;SDS011;67272;48.066;11.038;2023-09-08T03:33:28;7.60;;;6.90;;
39256;SDS011;67272;48.066;11.038;2023-09-08T03:35:58;7.47;;;6.78;;
39256;SDS011;67272;48.066;11.038;2023-09-08T03:38:25;7.38;;;6.68;;
39256;SDS011;67272;48.066;11.038;2023-09-08T03:40:52;7.65;;;6.95;;
39256;SDS011;67272;48.066;11.038;2023-09-08T03:43:19;7.88;;;6.90;;
39256;SDS011;67272;48.066;11.038;2023-09-08T03:45:45;7.22;;;6.53;;
39256;SDS011;67272;48.066;11.038;2023-09-08T03:48:12;7.40;;;6.70;;
39256;SDS011;67272;48.066;11.038;2023-09-08T03:50:38;7.18;;;6.47;;
39256;SDS011;67272;48.066;11.038;2023-09-08T03:53:05;7.20;;;6.57;;
39256;SDS011;67272;48.066;11.038;2023-09-08T03:55:31;6.60;;;6.00;;
39256;SDS011;67272;48.066;11.038;2023-09-08T03:57:58;6.88;;;6.18;;
39256;SDS011;67272;48.066;11.038;2023-09-08T04:00:25;6.60;;;6.00;;
39256;SDS011;67272;48.066;11.038;2023-09-08T04:02:59;6.38;;;5.88;;
39256;SDS011;67272;48.066;11.038;2023-09-08T04:05:28;6.47;;;5.88;;
39256;SDS011;67272;48.066;11.038;2023-09-08T04:07:54;8.65;;;5.72;;
39256;SDS011;67272;48.066;11.038;2023-09-08T04:10:21;8.25;;;7.20;;
39256;SDS011;67272;48.066;11.038;2023-09-08T04:12:47;8.07;;;7.38;;
39256;SDS011;67272;48.066;11.038;2023-09-08T04:15:17;7.93;;;6.82;;
39256;SDS011;67272;48.066;11.038;2023-09-08T04:17:49;7.10;;;6.40;;
39256;SDS011;67272;48.066;11.038;2023-09-08T04:20:19;8.75;;;7.95;;
39256;SDS011;67272;48.066;11.038;2023-09-08T04:22:49;8.32;;;7.30;;
39256;SDS011;67272;48.066;11.038;2023-09-08T04:25:16;9.05;;;7.10;;
39256;SDS011;67272;48.066;11.038;2023-09-08T04:27:42;9.90;;;7.65;;
39256;SDS011;67272;48.066;11.038;2023-09-08T04:30:10;8.82;;;7.28;;
39256;SDS011;67272;48.066;11.038;2023-09-08T04:32:37;7.57;;;6.43;;
39256;SDS011;67272;48.066;11.038;2023-09-08T04:35:04;7.18;;;6.47;;
39256;SDS011;67272;48.066;11.038;2023-09-08T04:37:31;8.10;;;7.30;;
39256;SDS011;67272;48.066;11.038;2023-09-08T04:39:57;6.85;;;6.25;;
39256;SDS011;67272;48.066;11.038;2023-09-08T04:42:23;7.45;;;6.80;;
39256;SDS011;67272;48.066;11.038;2023-09-08T04:44:51;7.95;;;5.85;;
39256;SDS011;67272;48.066;11.038;2023-09-08T04:47:17;6.50;;;5.90;;
39256;SDS011;67272;48.066;11.038;2023-09-08T04:49:43;7.15;;;6.47;;
39256;SDS011;67272;48.066;11.038;2023-09-08T04:52:10;7.30;;;6.70;;
39256;SDS011;67272;48.066;11.038;2023-09-08T04:54:37;7.13;;;6.47;;
39256;SDS011;67272;48.066;11.038;2023-09-08T04:57:03;7.22;;;6.53;;
39256;SDS011;67272;48.066;11.038;2023-09-08T04:59:29;8.27;;;6.82;;
39256;SDS011;67272;48.066;11.038;2023-09-08T05:01:57;7.65;;;6.90;;
39256;SDS011;67272;48.066;11.038;2023-09-08T05:04:23;7.60;;;6.90;;
39256;SDS011;67272;48.066;11.038;2023-09-08T05:06:49;7.70;;;6.90;;
39256;SDS011;67272;48.066;11.038;2023-09-08T05:09:17;7.35;;;6.65;;
39256;SDS011;67272;48.066;11.038;2023-09-08T05:11:43;8.07;;;7.28;;
39256;SDS011;67272;48.066;11.038;2023-09-08T05:14:09;7.72;;;7.03;;
39256;SDS011;67272;48.066;11.038;2023-09-08T05:16:39;8.00;;;7.30;;
39256;SDS011;67272;48.066;11.038;2023-09-08T05:19:12;8.13;;;7.38;;
39256;SDS011;67272;48.066;11.038;2023-09-08T05:21:38;7.28;;;6.57;;
39256;SDS011;67272;48.066;11.038;2023-09-08T05:24:08;6.22;;;5.63;;
39256;SDS011;67272;48.066;11.038;2023-09-08T05:26:36;7.88;;;6.22;;
39256;SDS011;67272;48.066;11.038;2023-09-08T05:29:03;6.30;;;5.70;;
39256;SDS011;67272;48.066;11.038;2023-09-08T05:31:29;7.30;;;5.97;;
39256;SDS011;67272;48.066;11.038;2023-09-08T05:33:56;5.93;;;5.32;;
39256;SDS011;67272;48.066;11.038;2023-09-08T05:36:22;6.80;;;5.65;;
39256;SDS011;67272;48.066;11.038;2023-09-08T05:38:51;9.80;;;6.60;;
39256;SDS011;67272;48.066;11.038;2023-09-08T05:41:18;9.20;;;6.30;;
39256;SDS011;67272;48.066;11.038;2023-09-08T05:43:45;6.32;;;5.78;;
39256;SDS011;67272;48.066;11.038;2023-09-08T05:46:11;7.03;;;6.30;;
39256;SDS011;67272;48.066;11.038;2023-09-08T05:48:39;6.53;;;6.03;;
39256;SDS011;67272;48.066;11.038;2023-09-08T05:51:08;5.88;;;5.40;;
39256;SDS011;67272;48.066;11.038;2023-09-08T05:53:36;6.18;;;5.68;;
39256;SDS011;67272;48.066;11.038;2023-09-08T05:56:10;6.80;;;6.20;;
39256;SDS011;67272;48.066;11.038;2023-09-08T05:58:39;6.70;;;5.82;;
39256;SDS011;67272;48.066;11.038;2023-09-08T06:01:05;6.20;;;5.60;;
39256;SDS011;67272;48.066;11.038;2023-09-08T06:03:33;6.05;;;5.38;;
39256;SDS011;67272;48.066;11.038;2023-09-08T06:06:00;10.10;;;9.00;;
39256;SDS011;67272;48.066;11.038;2023-09-08T06:08:33;20.60;;;17.23;;
39256;SDS011;67272;48.066;11.038;2023-09-08T06:10:59;44.90;;;37.13;;
39256;SDS011;67272;48.066;11.038;2023-09-08T06:13:28;36.75;;;31.50;;
39256;SDS011;67272;48.066;11.038;2023-09-08T06:15:54;29.83;;;26.63;;
39256;SDS011;67272;48.066;11.038;2023-09-08T06:18:21;13.70;;;12.35;;
39256;SDS011;67272;48.066;11.038;2023-09-08T06:20:47;11.35;;;10.25;;
39256;SDS011;67272;48.066;11.038;2023-09-08T06:23:14;9.55;;;8.70;;
39256;SDS011;67272;48.066;11.038;2023-09-08T06:25:40;8.80;;;7.97;;
39256;SDS011;67272;48.066;11.038;2023-09-08T06:28:07;11.13;;;10.05;;
39256;SDS011;67272;48.066;11.038;2023-09-08T06:30:33;14.43;;;13.05;;
39256;SDS011;67272;48.066;11.038;2023-09-08T06:33:00;13.90;;;12.52;;
39256;SDS011;67272;48.066;11.038;2023-09-08T06:35:29;12.52;;;11.32;;
39256;SDS011;67272;48.066;11.038;2023-09-08T06:37:55;9.65;;;8.75;;
39256;SDS011;67272;48.066;11.038;2023-09-08T06:40:23;7.97;;;7.22;;
39256;SDS011;67272;48.066;11.038;2023-09-08T06:42:50;8.13;;;7.43;;
39256;SDS011;67272;48.066;11.038;2023-09-08T06:45:25;8.18;;;7.47;;
39256;SDS011;67272;48.066;11.038;2023-09-08T06:47:51;8.90;;;8.10;;
39256;SDS011;67272;48.066;11.038;2023-09-08T06:50:21;10.55;;;9.38;;
39256;SDS011;67272;48.066;11.038;2023-09-08T06:52:47;10.27;;;9.27;;
39256;SDS011;67272;48.066;11.038;2023-09-08T06:55:14;10.05;;;9.10;;
39256;SDS011;67272;48.066;11.038;2023-09-08T06:57:42;10.15;;;9.25;;
39256;SDS011;67272;48.066;11.038;2023-09-08T07:00:09;9.18;;;8.35;;
39256;SDS011;67272;48.066;11.038;2023-09-08T07:02:37;7.47;;;6.88;;
39256;SDS011;67272;48.066;11.038;2023-09-08T07:05:03;7.80;;;7.13;;
39256;SDS011;67272;48.066;11.038;2023-09-08T07:07:34;7.30;;;6.70;;
39256;SDS011;67272;48.066;11.038;2023-09-08T07:10:04;7.47;;;6.82;;
39256;SDS011;67272;48.066;11.038;2023-09-08T07:12:30;7.07;;;6.47;;
39256;SDS011;67272;48.066;11.038;2023-09-08T07:14:56;6.85;;;6.30;;
39256;SDS011;67272;48.066;11.038;2023-09-08T07:17:25;6.38;;;5.78;;
39256;SDS011;67272;48.066;11.038;2023-09-08T07:19:52;7.18;;;6.57;;
39256;SDS011;67272;48.066;11.038;2023-09-08T07:22:19;7.43;;;6.82;;
39256;SDS011;67272;48.066;11.038;2023-09-08T07:24:45;6.78;;;6.18;;
39256;SDS011;67272;48.066;11.038;2023-09-08T07:27:12;6.82;;;6.20;;
39256;SDS011;67272;48.066;11.038;2023-09-08T07:29:40;6.97;;;6.47;;
39256;SDS011;67272;48.066;11.038;2023-09-08T07:32:06;7.13;;;6.57;;
39256;SDS011;67272;48.066;11.038;2023-09-08T07:34:33;6.35;;;5.85;;
39256;SDS011;67272;48.066;11.038;2023-09-08T07:37:00;7.07;;;6.55;;
39256;SDS011;67272;48.066;11.038;2023-09-08T07:39:27;7.25;;;6.65;;
39256;SDS011;67272;48.066;11.038;2023-09-08T07:41:53;7.30;;;6.70;;
39256;SDS011;67272;48.066;11.038;2023-09-08T07:44:21;7.43;;;6.82;;
39256;SDS011;67272;48.066;11.038;2023-09-08T07:46:48;7.18;;;6.53;;
39256;SDS011;67272;48.066;11.038;2023-09-08T07:49:16;7.15;;;6.65;;
39256;SDS011;67272;48.066;11.038;2023-09-08T07:51:44;8.00;;;6.57;;
39256;SDS011;67272;48.066;11.038;2023-09-08T07:54:13;7.85;;;7.20;;
39256;SDS011;67272;48.066;11.038;2023-09-08T07:56:43;7.10;;;6.50;;
39256;SDS011;67272;48.066;11.038;2023-09-08T07:59:09;6.53;;;6.03;;
39256;SDS011;67272;48.066;11.038;2023-09-08T08:01:38;7.20;;;6.55;;
39256;SDS011;67272;48.066;11.038;2023-09-08T08:04:05;7.55;;;7.00;;
39256;SDS011;67272;48.066;11.038;2023-09-08T08:06:31;8.00;;;7.40;;
39256;SDS011;67272;48.066;11.038;2023-09-08T08:08:57;7.97;;;7.38;;
39256;SDS011;67272;48.066;11.038;2023-09-08T08:11:23;7.90;;;7.30;;
39256;SDS011;67272;48.066;11.038;2023-09-08T08:13:51;8.40;;;7.70;;
39256;SDS011;67272;48.066;11.038;2023-09-08T08:16:17;8.02;;;7.35;;
39256;SDS011;67272;48.066;11.038;2023-09-08T08:18:43;8.18;;;7.57;;
39256;SDS011;67272;48.066;11.038;2023-09-08T08:21:09;8.35;;;7.75;;
39256;SDS011;67272;48.066;11.038;2023-09-08T08:23:35;8.18;;;7.47;;
39256;SDS011;67272;48.066;11.038;2023-09-08T08:26:03;7.90;;;7.20;;
39256;SDS011;67272;48.066;11.038;2023-09-08T08:28:29;8.65;;;7.95;;
39256;SDS011;67272;48.066;11.038;2023-09-08T08:30:55;8.85;;;7.95;;
39256;SDS011;67272;48.066;11.038;2023-09-08T08:33:22;7.97;;;7.20;;
39256;SDS011;67272;48.066;11.038;2023-09-08T08:35:53;8.57;;;7.78;;
39256;SDS011;67272;48.066;11.038;2023-09-08T08:38:20;7.57;;;7.00;;
39256;SDS011;67272;48.066;11.038;2023-09-08T08:40:46;8.65;;;7.65;;
39256;SDS011;67272;48.066;11.038;2023-09-08T08:43:16;6.95;;;6.45;;
39256;SDS011;67272;48.066;11.038;2023-09-08T08:45:42;7.20;;;6.50;;
39256;SDS011;67272;48.066;11.038;2023-09-08T08:48:09;7.20;;;6.65;;
39256;SDS011;67272;48.066;11.038;2023-09-08T08:50:36;7.43;;;6.80;;
39256;SDS011;67272;48.066;11.038;2023-09-08T08:53:06;8.18;;;7.57;;
39256;SDS011;67272;48.066;11.038;2023-09-08T08:55:34;8.27;;;7.68;;
39256;SDS011;67272;48.066;11.038;2023-09-08T08:58:03;7.95;;;7.25;;
39256;SDS011;67272;48.066;11.038;2023-09-08T09:00:29;7.05;;;6.50;;
39256;SDS011;67272;48.066;11.038;2023-09-08T09:02:58;7.47;;;6.97;;
39256;SDS011;67272;48.066;11.038;2023-09-08T09:05:25;8.40;;;7.70;;
39256;SDS011;67272;48.066;11.038;2023-09-08T09:07:52;8.43;;;7.72;;
39256;SDS011;67272;48.066;11.038;2023-09-08T09:10:19;7.68;;;7.18;;
39256;SDS011;67272;48.066;11.038;2023-09-08T09:12:45;8.32;;;7.65;;
39256;SDS011;67272;48.066;11.038;2023-09-08T09:15:11;8.07;;;7.47;;
39256;SDS011;67272;48.066;11.038;2023-09-08T09:17:38;7.85;;;7.22;;
39256;SDS011;67272;48.066;11.038;2023-09-08T09:22:40;7.55;;;7.05;;
39256;SDS011;67272;48.066;11.038;2023-09-08T09:25:06;7.43;;;6.82;;
39256;SDS011;67272;48.066;11.038;2023-09-08T09:27:33;8.63;;;7.90;;
39256;SDS011;67272;48.066;11.038;2023-09-08T09:30:03;7.95;;;7.35;;
39256;SDS011;67272;48.066;11.038;2023-09-08T09:32:29;7.95;;;7.25;;
39256;SDS011;67272;48.066;11.038;2023-09-08T09:34:56;7.45;;;6.85;;
39256;SDS011;67272;48.066;11.038;2023-09-08T09:37:22;7.95;;;7.35;;
39256;SDS011;67272;48.066;11.038;2023-09-08T09:39:49;7.50;;;7.00;;
39256;SDS011;67272;48.066;11.038;2023-09-08T09:42:15;8.07;;;7.47;;
39256;SDS011;67272;48.066;11.038;2023-09-08T09:44:42;8.38;;;7.78;;
39256;SDS011;67272;48.066;11.038;2023-09-08T09:47:08;7.57;;;7.07;;
39256;SDS011;67272;48.066;11.038;2023-09-08T09:49:44;7.40;;;6.80;;
39256;SDS011;67272;48.066;11.038;2023-09-08T09:52:11;8.57;;;7.88;;
39256;SDS011;67272;48.066;11.038;2023-09-08T09:54:41;8.75;;;8.15;;
39256;SDS011;67272;48.066;11.038;2023-09-08T09:57:09;8.07;;;7.47;;
39256;SDS011;67272;48.066;11.038;2023-09-08T09:59:39;7.93;;;7.40;;
39256;SDS011;67272;48.066;11.038;2023-09-08T10:02:07;6.75;;;6.28;;
39256;SDS011;67272;48.066;11.038;2023-09-08T10:04:37;7.75;;;6.97;;
39256;SDS011;67272;48.066;11.038;2023-09-08T10:07:03;7.68;;;6.97;;
39256;SDS011;67272;48.066;11.038;2023-09-08T10:09:29;7.03;;;6.45;;
39256;SDS011;67272;48.066;11.038;2023-09-08T10:11:55;8.35;;;7.75;;
39256;SDS011;67272;48.066;11.038;2023-09-08T10:14:22;8.45;;;7.63;;
39256;SDS011;67272;48.066;11.038;2023-09-08T10:16:52;7.75;;;7.25;;
39256;SDS011;67272;48.066;11.038;2023-09-08T10:19:21;7.90;;;7.40;;
39256;SDS011;67272;48.066;11.038;2023-09-08T10:21:51;7.45;;;6.85;;
39256;SDS011;67272;48.066;11.038;2023-09-08T10:24:24;7.32;;;6.82;;
39256;SDS011;67272;48.066;11.038;2023-09-08T10:29:23;7.35;;;6.75;;
39256;SDS011;67272;48.066;11.038;2023-09-08T10:31:50;6.63;;;6.22;;
39256;SDS011;67272;48.066;11.038;2023-09-08T10:34:19;7.13;;;6.65;;
39256;SDS011;67272;48.066;11.038;2023-09-08T10:36:46;7.60;;;7.00;;
39256;SDS011;67272;48.066;11.038;2023-09-08T10:39:35;7.53;;;7.03;;
39256;SDS011;67272;48.066;11.038;2023-09-08T10:47:12;7.50;;;7.00;;
39256;SDS011;67272;48.066;11.038;2023-09-08T10:49:38;7.53;;;6.93;;
39256;SDS011;67272;48.066;11.038;2023-09-08T10:52:08;7.95;;;7.45;;
39256;SDS011;67272;48.066;11.038;2023-09-08T10:54:45;8.00;;;7.30;;
39256;SDS011;67272;48.066;11.038;2023-09-08T10:57:17;7.57;;;6.88;;
39256;SDS011;67272;48.066;11.038;2023-09-08T11:05:10;9.18;;;8.45;;
39256;SDS011;67272;48.066;11.038;2023-09-08T11:07:38;7.50;;;7.00;;
39256;SDS011;67272;48.066;11.038;2023-09-08T11:10:09;7.45;;;6.95;;
39256;SDS011;67272;48.066;11.038;2023-09-08T11:12:35;8.40;;;7.80;;
39256;SDS011;67272;48.066;11.038;2023-09-08T11:15:02;7.85;;;7.35;;
39256;SDS011;67272;48.066;11.038;2023-09-08T11:17:34;8.57;;;7.90;;
39256;SDS011;67272;48.066;11.038;2023-09-08T11:20:01;7.80;;;7.25;;
39256;SDS011;67272;48.066;11.038;2023-09-08T11:22:33;8.18;;;7.47;;
39256;SDS011;67272;48.066;11.038;2023-09-08T11:25:00;8.45;;;7.85;;
39256;SDS011;67272;48.066;11.038;2023-09-08T11:27:36;8.45;;;7.85;;
39256;SDS011;67272;48.066;11.038;2023-09-08T11:30:05;7.55;;;6.95;;
39256;SDS011;67272;48.066;11.038;2023-09-08T11:32:32;8.13;;;7.45;;
39256;SDS011;67272;48.066;11.038;2023-09-08T11:35:05;8.45;;;7.80;;
39256;SDS011;67272;48.066;11.038;2023-09-08T11:37:34;7.68;;;7.03;;
39256;SDS011;67272;48.066;11.038;2023-09-08T11:40:04;7.43;;;6.72;;
39256;SDS011;67272;48.066;11.038;2023-09-08T11:42:40;8.25;;;7.55;;
39256;SDS011;67272;48.066;11.038;2023-09-08T11:45:11;7.82;;;7.20;;
39256;SDS011;67272;48.066;11.038;2023-09-08T11:47:41;8.50;;;7.80;;
39256;SDS011;67272;48.066;11.038;2023-09-08T11:50:09;8.90;;;8.27;;
39256;SDS011;67272;48.066;11.038;2023-09-08T11:52:37;7.95;;;7.45;;
39256;SDS011;67272;48.066;11.038;2023-09-08T11:55:04;8.20;;;7.60;;
39256;SDS011;67272;48.066;11.038;2023-09-08T11:57:31;8.52;;;7.82;;
39256;SDS011;67272;48.066;11.038;2023-09-08T11:59:58;8.43;;;7.72;;
39256;SDS011;67272;48.066;11.038;2023-09-08T12:02:28;7.75;;;7.13;;
39256;SDS011;67272;48.066;11.038;2023-09-08T12:05:01;7.57;;;6.97;;
39256;SDS011;67272;48.066;11.038;2023-09-08T12:07:28;7.68;;;7.00;;
39256;SDS011;67272;48.066;11.038;2023-09-08T12:09:57;7.40;;;6.70;;
39256;SDS011;67272;48.066;11.038;2023-09-08T12:12:25;7.50;;;6.90;;
39256;SDS011;67272;48.066;11.038;2023-09-08T12:14:58;8.38;;;7.68;;
39256;SDS011;67272;48.066;11.038;2023-09-08T12:17:24;7.57;;;6.82;;
39256;SDS011;67272;48.066;11.038;2023-09-08T12:19:57;7.20;;;6.75;;
39256;SDS011;67272;48.066;11.038;2023-09-08T12:22:23;7.38;;;6.82;;
39256;SDS011;67272;48.066;11.038;2023-09-08T12:24:55;7.68;;;7.10;;
39256;SDS011;67272;48.066;11.038;2023-09-08T12:27:23;7.95;;;7.35;;
39256;SDS011;67272;48.066;11.038;2023-09-08T12:29:56;7.88;;;7.28;;
39256;SDS011;67272;48.066;11.038;2023-09-08T12:32:24;7.60;;;7.00;;
39256;SDS011;67272;48.066;11.038;2023-09-08T12:34:51;7.40;;;6.88;;
39256;SDS011;67272;48.066;11.038;2023-09-08T12:37:25;7.13;;;6.63;;
39256;SDS011;67272;48.066;11.038;2023-09-08T12:39:58;7.07;;;6.53;;
39256;SDS011;67272;48.066;11.038;2023-09-08T12:42:29;8.38;;;7.68;;
39256;SDS011;67272;48.066;11.038;2023-09-08T12:44:55;7.70;;;7.00;;
39256;SDS011;67272;48.066;11.038;2023-09-08T12:47:25;7.57;;;6.97;;
39256;SDS011;67272;48.066;11.038;2023-09-08T12:49:51;8.05;;;7.45;;
39256;SDS011;67272;48.066;11.038;2023-09-08T12:52:17;7.80;;;6.80;;
39256;SDS011;67272;48.066;11.038;2023-09-08T12:54:43;7.55;;;6.95;;
39256;SDS011;67272;48.066;11.038;2023-09-08T12:57:10;7.93;;;7.32;;
39256;SDS011;67272;48.066;11.038;2023-09-08T12:59:36;7.22;;;6.82;;
39256;SDS011;67272;48.066;11.038;2023-09-08T13:02:02;7.38;;;6.88;;
39256;SDS011;67272;48.066;11.038;2023-09-08T13:04:28;7.55;;;6.95;;
39256;SDS011;67272;48.066;11.038;2023-09-08T13:06:54;8.00;;;7.38;;
39256;SDS011;67272;48.066;11.038;2023-09-08T13:09:22;7.63;;;7.07;;
39256;SDS011;67272;48.066;11.038;2023-09-08T13:11:49;7.45;;;6.95;;
39256;SDS011;67272;48.066;11.038;2023-09-08T13:14:16;7.07;;;6.63;;
39256;SDS011;67272;48.066;11.038;2023-09-08T13:16:42;7.60;;;7.00;;
39256;SDS011;67272;48.066;11.038;2023-09-08T13:19:08;7.30;;;6.80;;
39256;SDS011;67272;48.066;11.038;2023-09-08T13:21:35;7.82;;;7.22;;
39256;SDS011;67272;48.066;11.038;2023-09-08T13:24:03;7.38;;;6.70;;
39256;SDS011;67272;48.066;11.038;2023-09-08T13:26:29;7.13;;;6.63;;
39256;SDS011;67272;48.066;11.038;2023-09-08T13:28:55;7.22;;;6.63;;
39256;SDS011;67272;48.066;11.038;2023-09-08T13:31:21;7.45;;;6.78;;
39256;SDS011;67272;48.066;11.038;2023-09-08T13:33:47;7.30;;;6.80;;
39256;SDS011;67272;48.066;11.038;2023-09-08T13:36:13;7.22;;;6.72;;
39256;SDS011;67272;48.066;11.038;2023-09-08T13:38:39;7.70;;;7.10;;
39256;SDS011;67272;48.066;11.038;2023-09-08T13:41:05;6.90;;;6.50;;
39256;SDS011;67272;48.066;11.038;2023-09-08T13:43:32;7.55;;;6.95;;
39256;SDS011;67272;48.066;11.038;2023-09-08T13:45:58;7.25;;;6.70;;
39256;SDS011;67272;48.066;11.038;2023-09-08T13:48:24;7.53;;;6.93;;
39256;SDS011;67272;48.066;11.038;2023-09-08T13:50:50;7.28;;;6.78;;
39256;SDS011;67272;48.066;11.038;2023-09-08T13:53:22;8.02;;;7.47;;
39256;SDS011;67272;48.066;11.038;2023-09-08T13:55:49;7.20;;;6.63;;
39256;SDS011;67272;48.066;11.038;2023-09-08T13:58:16;7.32;;;6.82;;
39256;SDS011;67272;48.066;11.038;2023-09-08T14:00:42;7.07;;;6.68;;
39256;SDS011;67272;48.066;11.038;2023-09-08T14:03:08;7.35;;;6.85;;
39256;SDS011;67272;48.066;11.038;2023-09-08T14:05:34;8.02;;;7.53;;
39256;SDS011;67272;48.066;11.038;2023-09-08T14:08:00;8.00;;;7.25;;
39256;SDS011;67272;48.066;11.038;2023-09-08T14:10:26;7.47;;;6.97;;
39256;SDS011;67272;48.066;11.038;2023-09-08T14:12:52;8.25;;;7.65;;
39256;SDS011;67272;48.066;11.038;2023-09-08T14:15:18;7.97;;;7.38;;
39256;SDS011;67272;48.066;11.038;2023-09-08T14:17:45;7.22;;;6.63;;
39256;SDS011;67272;48.066;11.038;2023-09-08T14:20:11;7.45;;;6.85;;
39256;SDS011;67272;48.066;11.038;2023-09-08T14:22:37;7.83;;;7.23;;
39256;SDS011;67272;48.066;11.038;2023-09-08T14:25:10;7.88;;;7.25;;
39256;SDS011;67272;48.066;11.038;2023-09-08T14:27:36;7.88;;;7.38;;
39256;SDS011;67272;48.066;11.038;2023-09-08T14:30:03;7.22;;;6.72;;
39256;SDS011;67272;48.066;11.038;2023-09-08T14:32:29;7.43;;;6.93;;
39256;SDS011;67272;48.066;11.038;2023-09-08T14:34:56;7.70;;;7.10;;
39256;SDS011;67272;48.066;11.038;2023-09-08T14:37:22;6.93;;;6.53;;
39256;SDS011;67272;48.066;11.038;2023-09-08T14:39:48;7.57;;;7.07;;
39256;SDS011;67272;48.066;11.038;2023-09-08T14:42:15;7.45;;;6.95;;
39256;SDS011;67272;48.066;11.038;2023-09-08T14:44:41;8.15;;;7.45;;
39256;SDS011;67272;48.066;11.038;2023-09-08T14:47:10;7.90;;;7.30;;
39256;SDS011;67272;48.066;11.038;2023-09-08T14:49:37;7.93;;;7.32;;
39256;SDS011;67272;48.066;11.038;2023-09-08T14:52:05;7.95;;;7.25;;
39256;SDS011;67272;48.066;11.038;2023-09-08T14:54:31;7.82;;;7.22;;
39256;SDS011;67272;48.066;11.038;2023-09-08T14:56:57;7.63;;;7.13;;